Time;durP1;ratioP1;P1;durP2;ratioP2;P2;SDS_P1;SDS_P2;PMS_P1;PMS_P2;Temp;Humidity;BMP_temperature;BMP_pressure;BME280_temperature;BME280_humidity;BME280_pressure;Samples;Min_cycle;Max_cycle;Signal;HPM_P1;HPM_P2
2021/04/25 00:00:52;;;;;;;8.63;1.92;;;10.40;60.50;;;;;;5012210;28;20080;-61
2021/04/25 00:03:18;;;;;;;6.07;1.70;;;10.30;60.20;;;;;;5012983;28;20031;-61
2021/04/25 00:05:43;;;;;;;5.88;2.08;;;10.30;59.50;;;;;;5012729;28;20397;-61
2021/04/25 00:08:09;;;;;;;4.78;1.63;;;10.30;59.30;;;;;;5011962;28;20112;-61
2021/04/25 00:10:38;;;;;;;9.25;1.98;;;10.30;59.10;;;;;;5012927;28;20489;-61
2021/04/25 00:13:03;;;;;;;6.28;1.60;;;10.30;59.60;;;;;;5012790;28;20040;-61
2021/04/25 00:15:29;;;;;;;4.78;1.40;;;10.30;60.90;;;;;;5011872;28;20188;-61
2021/04/25 00:17:55;;;;;;;5.43;2.10;;;10.30;60.00;;;;;;5012556;28;20026;-61
2021/04/25 00:20:21;;;;;;;9.52;1.80;;;10.30;61.00;;;;;;5012514;28;20540;-61
2021/04/25 00:22:48;;;;;;;6.60;1.80;;;10.20;60.90;;;;;;5011953;28;20042;-61
2021/04/25 00:25:15;;;;;;;9.98;1.60;;;10.20;60.20;;;;;;5011733;28;20026;-61
2021/04/25 00:27:41;;;;;;;8.48;2.03;;;10.10;60.50;;;;;;5012016;28;20041;-61
2021/04/25 00:30:09;;;;;;;8.15;1.77;;;10.10;60.00;;;;;;5011508;28;20113;-61
2021/04/25 00:32:36;;;;;;;6.28;1.45;;;10.10;59.40;;;;;;5012521;28;20260;-61
2021/04/25 00:35:02;;;;;;;5.60;1.88;;;10.10;59.30;;;;;;5011926;28;20053;-61
2021/04/25 00:37:28;;;;;;;10.38;2.28;;;10.10;59.30;;;;;;5012220;28;20454;-61
2021/04/25 00:39:54;;;;;;;7.72;2.28;;;10.10;58.90;;;;;;5012797;28;20034;-61
2021/04/25 00:42:20;;;;;;;5.63;2.00;;;10.10;58.70;;;;;;5011807;28;20034;-61
2021/04/25 00:44:49;;;;;;;3.15;1.55;;;10.20;58.20;;;;;;5012348;28;20030;-61
2021/04/25 00:47:15;;;;;;;7.25;1.60;;;10.10;59.30;;;;;;5012358;28;20049;-61
2021/04/25 00:49:41;;;;;;;5.10;1.38;;;10.10;59.80;;;;;;5009943;28;20022;-61
2021/04/25 00:52:08;;;;;;;5.68;1.27;;;10.10;60.10;;;;;;4994756;28;20037;-61
2021/04/25 00:54:40;;;;;;;4.05;1.65;;;10.10;60.70;;;;;;5014374;28;20022;-61
2021/04/25 00:57:07;;;;;;;12.63;1.70;;;10.00;60.90;;;;;;5015294;28;20459;-61
2021/04/25 00:59:32;;;;;;;8.15;1.80;;;10.00;60.40;;;;;;5015986;28;20030;-61
2021/04/25 01:01:58;;;;;;;7.05;1.40;;;10.10;60.20;;;;;;4998232;28;20056;-61
2021/04/25 01:04:24;;;;;;;7.55;1.60;;;10.10;60.40;;;;;;5015188;28;20057;-61
2021/04/25 01:06:50;;;;;;;8.60;1.50;;;10.10;60.20;;;;;;5015358;28;20441;-61
2021/04/25 01:09:18;;;;;;;8.95;1.45;;;10.10;59.80;;;;;;5015613;28;20030;-61
2021/04/25 01:11:44;;;;;;;13.70;2.55;;;10.10;60.00;;;;;;5015137;28;20045;-61
2021/04/25 01:14:10;;;;;;;5.90;1.80;;;10.10;60.00;;;;;;5009708;28;20031;-61
2021/04/25 01:16:35;;;;;;;12.60;1.52;;;10.10;59.90;;;;;;5007481;28;20033;-61
2021/04/25 01:19:01;;;;;;;6.93;1.42;;;10.10;59.90;;;;;;5014625;28;20470;-61
2021/04/25 01:21:27;;;;;;;1.75;0.90;;;10.10;59.60;;;;;;5015710;28;20029;-61
2021/04/25 01:23:52;;;;;;;4.03;1.08;;;10.10;59.80;;;;;;5015240;28;20382;-61
2021/04/25 01:26:18;;;;;;;10.13;1.65;;;10.10;60.30;;;;;;5014722;28;20046;-61
2021/04/25 01:28:44;;;;;;;8.23;1.58;;;10.10;60.90;;;;;;5015468;28;20026;-61
2021/04/25 01:31:09;;;;;;;11.60;1.85;;;10.10;61.20;;;;;;5014539;28;20532;-61
2021/04/25 01:33:35;;;;;;;7.68;1.27;;;10.10;61.60;;;;;;5015228;28;20041;-61
2021/04/25 01:36:03;;;;;;;5.32;1.48;;;10.00;61.20;;;;;;4997619;28;20065;-61
2021/04/25 01:38:30;;;;;;;6.93;1.52;;;10.00;61.30;;;;;;5014463;28;20037;-61
2021/04/25 01:40:55;;;;;;;8.80;1.58;;;9.90;61.00;;;;;;5015156;28;20120;-61
2021/04/25 01:43:21;;;;;;;1.80;0.93;;;9.90;61.60;;;;;;5015232;28;20109;-61
2021/04/25 01:45:48;;;;;;;7.15;1.55;;;9.90;62.40;;;;;;5014308;28;20065;-61
2021/04/25 01:48:14;;;;;;;6.55;1.15;;;9.90;62.30;;;;;;5014776;28;20033;-61
2021/04/25 01:50:40;;;;;;;4.68;1.17;;;9.80;62.50;;;;;;5015160;28;20087;-61
2021/04/25 01:53:06;;;;;;;4.45;1.30;;;9.80;62.90;;;;;;5014070;28;20029;-61
2021/04/25 01:55:36;;;;;;;6.63;1.52;;;9.80;62.00;;;;;;5014992;28;20026;-61
2021/04/25 01:58:03;;;;;;;9.60;2.15;;;9.80;61.40;;;;;;5014594;28;20048;-61
2021/04/25 02:00:30;;;;;;;4.47;1.42;;;9.80;60.90;;;;;;5014036;28;20041;-61
2021/04/25 02:02:56;;;;;;;7.70;1.38;;;9.90;60.60;;;;;;5015006;28;20034;-61
2021/04/25 02:05:23;;;;;;;6.88;1.48;;;9.90;60.60;;;;;;5014189;28;20113;-61
2021/04/25 02:07:49;;;;;;;12.30;2.33;;;9.90;61.00;;;;;;5014204;28;20034;-61
2021/04/25 02:10:15;;;;;;;6.97;1.08;;;9.90;60.50;;;;;;5014471;28;20032;-61
2021/04/25 02:12:41;;;;;;;9.38;1.55;;;9.90;60.70;;;;;;5014666;28;20030;-61
2021/04/25 02:15:08;;;;;;;7.45;2.10;;;10.00;60.70;;;;;;5013402;28;20401;-61
2021/04/25 02:17:34;;;;;;;10.20;1.50;;;9.90;60.50;;;;;;5014605;28;20030;-61
2021/04/25 02:20:00;;;;;;;11.38;1.60;;;10.00;60.60;;;;;;5014657;28;20370;-61
2021/04/25 02:22:26;;;;;;;2.78;1.17;;;9.90;60.40;;;;;;5013633;28;20118;-61
2021/04/25 02:24:52;;;;;;;7.32;1.55;;;9.90;60.70;;;;;;5014434;28;20029;-61
2021/04/25 02:27:18;;;;;;;5.70;1.10;;;9.90;60.80;;;;;;5013503;28;20038;-61
2021/04/25 02:29:44;;;;;;;3.45;0.93;;;9.90;61.10;;;;;;5014219;28;20033;-61
2021/04/25 02:32:10;;;;;;;4.53;1.40;;;9.90;61.20;;;;;;5014023;28;20034;-61
2021/04/25 02:34:36;;;;;;;3.10;1.05;;;9.90;61.20;;;;;;5013731;28;20034;-61
2021/04/25 02:37:01;;;;;;;4.35;0.95;;;10.00;61.20;;;;;;5013937;28;20113;-61
2021/04/25 02:39:27;;;;;;;8.45;1.55;;;9.90;61.20;;;;;;5014205;28;20036;-61
2021/04/25 02:41:53;;;;;;;9.38;2.03;;;10.00;61.00;;;;;;5013437;28;20053;-61
2021/04/25 02:44:20;;;;;;;6.90;1.50;;;10.00;61.00;;;;;;5013734;28;20366;-61
2021/04/25 02:46:45;;;;;;;4.30;1.30;;;10.00;60.70;;;;;;5014183;28;20033;-61
2021/04/25 02:49:11;;;;;;;18.35;2.45;;;10.00;60.50;;;;;;5012995;28;20430;-61
2021/04/25 02:51:37;;;;;;;11.10;1.80;;;10.00;60.20;;;;;;5013841;28;20045;-61
2021/04/25 02:54:03;;;;;;;6.85;1.70;;;10.00;60.20;;;;;;5013736;28;20077;-61
2021/04/25 02:56:29;;;;;;;5.00;1.80;;;10.00;60.30;;;;;;5012981;28;20125;-61
2021/04/25 02:58:55;;;;;;;5.18;1.30;;;10.10;60.10;;;;;;5013712;28;20381;-61
2021/04/25 03:01:20;;;;;;;7.75;1.83;;;10.10;60.00;;;;;;5013409;28;20034;-61
2021/04/25 03:03:46;;;;;;;1.95;0.90;;;10.00;60.00;;;;;;5013177;28;20030;-61
2021/04/25 03:06:12;;;;;;;6.38;1.10;;;10.00;60.50;;;;;;5013526;28;20046;-61
2021/04/25 03:08:38;;;;;;;8.70;1.30;;;10.00;61.20;;;;;;5013570;28;20077;-61
2021/04/25 03:11:03;;;;;;;4.47;0.98;;;10.00;61.00;;;;;;5012967;28;20485;-61
2021/04/25 03:13:29;;;;;;;6.68;1.13;;;9.90;61.40;;;;;;5013222;28;20053;-61
2021/04/25 03:15:55;;;;;;;7.78;1.48;;;9.90;60.80;;;;;;5012828;28;20145;-61
2021/04/25 03:18:21;;;;;;;5.60;1.23;;;9.90;60.70;;;;;;5012436;28;20140;-61
2021/04/25 03:20:47;;;;;;;12.93;1.40;;;9.90;60.80;;;;;;5013454;28;20124;-61
2021/04/25 03:23:12;;;;;;;9.65;1.67;;;9.90;60.60;;;;;;5013368;28;20121;-61
2021/04/25 03:25:38;;;;;;;10.68;1.27;;;9.90;60.60;;;;;;5012438;28;20044;-61
2021/04/25 03:28:04;;;;;;;10.75;2.25;;;9.90;61.20;;;;;;5013253;28;20100;-61
2021/04/25 03:30:30;;;;;;;11.15;1.60;;;9.90;61.10;;;;;;5013226;28;20018;-61
2021/04/25 03:32:56;;;;;;;4.30;1.08;;;9.90;60.40;;;;;;5012589;28;20038;-61
2021/04/25 03:35:22;;;;;;;10.82;1.65;;;9.90;61.10;;;;;;5012913;28;20474;-61
2021/04/25 03:37:48;;;;;;;7.00;1.55;;;9.90;61.20;;;;;;5012615;28;20029;-61
2021/04/25 03:40:17;;;;;;;14.55;1.77;;;9.80;61.30;;;;;;5013032;28;20057;-61
2021/04/25 03:42:42;;;;;;;8.55;2.42;;;9.80;61.00;;;;;;5012835;28;20029;-61
2021/04/25 03:45:13;;;;;;;8.85;1.55;;;9.80;60.80;;;;;;5012289;28;20088;-61
2021/04/25 03:47:42;;;;;;;5.72;1.27;;;9.80;60.80;;;;;;5012790;28;20045;-61
2021/04/25 03:50:08;;;;;;;7.90;1.17;;;9.80;61.00;;;;;;4995436;28;20409;-61
2021/04/25 03:52:34;;;;;;;5.22;1.13;;;9.80;61.40;;;;;;5012055;28;20042;-61
2021/04/25 03:54:59;;;;;;;8.30;1.33;;;9.90;61.30;;;;;;5012955;28;20040;-61
2021/04/25 03:57:25;;;;;;;7.57;1.50;;;9.80;61.00;;;;;;5012720;28;20473;-61
2021/04/25 03:59:51;;;;;;;5.43;1.08;;;9.80;61.60;;;;;;5012204;28;20049;-61
2021/04/25 04:02:17;;;;;;;5.38;1.20;;;9.80;61.90;;;;;;5012875;28;20030;-61
2021/04/25 04:04:42;;;;;;;5.80;1.60;;;9.80;61.50;;;;;;4998888;28;20027;-61
2021/04/25 04:07:08;;;;;;;12.15;1.48;;;9.80;61.20;;;;;;5012131;28;20049;-61
2021/04/25 04:09:33;;;;;;;6.45;1.48;;;9.80;61.20;;;;;;5012648;28;20030;-61
2021/04/25 04:11:59;;;;;;;15.07;2.25;;;9.80;60.90;;;;;;5012609;28;20091;-62
2021/04/25 04:14:25;;;;;;;8.07;1.30;;;9.90;61.00;;;;;;5012149;28;20038;-62
2021/04/25 04:16:51;;;;;;;13.98;1.63;;;9.80;60.90;;;;;;5012762;28;20037;-62
2021/04/25 04:19:16;;;;;;;7.47;2.03;;;9.80;61.30;;;;;;5012729;28;20061;-61
2021/04/25 04:21:42;;;;;;;9.38;1.40;;;9.90;61.60;;;;;;5012097;28;20037;-61
2021/04/25 04:24:08;;;;;;;6.22;1.90;;;9.80;62.30;;;;;;5012720;28;20377;-61
2021/04/25 04:26:33;;;;;;;6.68;2.00;;;9.80;62.30;;;;;;5012568;28;20375;-61
2021/04/25 04:28:59;;;;;;;11.90;2.42;;;9.80;62.10;;;;;;5014795;28;20540;-61
2021/04/25 04:31:25;;;;;;;11.50;1.73;;;9.80;61.90;;;;;;5016672;28;20030;-61
2021/04/25 04:33:50;;;;;;;7.65;1.92;;;9.70;62.10;;;;;;5016387;28;20037;-61
2021/04/25 04:36:16;;;;;;;8.80;1.77;;;9.80;62.20;;;;;;5015967;28;20466;-61
2021/04/25 04:38:41;;;;;;;6.03;1.50;;;9.70;61.80;;;;;;5016340;28;20177;-61
2021/04/25 04:41:07;;;;;;;3.67;1.10;;;9.70;62.00;;;;;;5015385;28;20025;-61
2021/04/25 04:43:33;;;;;;;2.88;0.93;;;9.70;62.50;;;;;;5016508;28;20108;-61
2021/04/25 04:45:59;;;;;;;6.60;1.38;;;9.70;62.70;;;;;;5015979;28;20568;-61
2021/04/25 04:48:24;;;;;;;3.40;1.30;;;9.70;62.60;;;;;;5015573;28;20046;-61
2021/04/25 04:50:50;;;;;;;4.80;1.02;;;9.70;62.90;;;;;;5016041;28;20486;-61
2021/04/25 04:53:16;;;;;;;4.07;1.02;;;9.60;63.20;;;;;;5016081;28;20033;-62
2021/04/25 04:55:42;;;;;;;4.63;1.48;;;9.60;63.10;;;;;;5015305;28;20116;-61
2021/04/25 04:58:08;;;;;;;8.98;1.05;;;9.60;62.80;;;;;;5015602;28;20034;-62
2021/04/25 05:00:33;;;;;;;16.60;1.88;;;9.60;62.70;;;;;;5016106;28;20053;-61
2021/04/25 05:02:59;;;;;;;16.50;1.70;;;9.60;62.70;;;;;;5015390;28;20112;-61
2021/04/25 05:05:25;;;;;;;7.63;1.67;;;9.70;62.50;;;;;;5015771;28;20029;-61
2021/04/25 05:07:50;;;;;;;18.15;2.17;;;9.60;62.20;;;;;;5015943;28;20038;-61
2021/04/25 05:10:16;;;;;;;9.13;1.42;;;9.70;61.90;;;;;;5014756;28;20030;-61
2021/04/25 05:12:42;;;;;;;9.35;1.60;;;9.70;61.60;;;;;;5015986;28;20093;-61
2021/04/25 05:15:08;;;;;;;9.98;1.60;;;9.70;61.60;;;;;;5015458;28;20122;-61
2021/04/25 05:17:34;;;;;;;9.43;1.60;;;9.80;61.50;;;;;;5015114;28;20034;-61
2021/04/25 05:19:59;;;;;;;17.30;2.45;;;9.70;61.20;;;;;;4998089;28;20042;-61
2021/04/25 05:22:25;;;;;;;11.23;2.10;;;9.70;61.10;;;;;;5015346;28;20104;-61
2021/04/25 05:24:51;;;;;;;6.88;1.75;;;9.80;61.60;;;;;;5014255;28;20366;-61
2021/04/25 05:27:17;;;;;;;5.07;1.13;;;9.80;61.40;;;;;;5014888;28;20040;-61
2021/04/25 05:29:43;;;;;;;6.70;1.65;;;9.80;62.30;;;;;;5015033;28;20022;-61
2021/04/25 05:32:08;;;;;;;6.00;1.40;;;9.70;61.60;;;;;;5014229;28;20041;-61
2021/04/25 05:34:35;;;;;;;8.02;1.45;;;9.70;61.70;;;;;;5014769;28;20033;-62
2021/04/25 05:37:01;;;;;;;5.28;1.40;;;9.70;61.60;;;;;;5014620;28;20117;-61
2021/04/25 05:39:27;;;;;;;5.93;1.27;;;9.70;62.00;;;;;;5013326;28;20026;-61
2021/04/25 05:41:53;;;;;;;6.35;1.20;;;9.80;61.80;;;;;;5014673;28;20029;-61
2021/04/25 05:44:19;;;;;;;5.75;1.48;;;9.70;61.90;;;;;;5013835;28;20025;-61
2021/04/25 05:46:44;;;;;;;5.43;1.50;;;9.70;62.00;;;;;;5011915;28;20061;-61
2021/04/25 05:49:10;;;;;;;9.55;1.70;;;9.80;61.80;;;;;;5014503;28;20026;-61
2021/04/25 05:51:35;;;;;;;9.77;1.40;;;9.70;61.60;;;;;;5013795;28;20516;-61
2021/04/25 05:54:02;;;;;;;6.82;1.08;;;9.80;61.40;;;;;;5014135;28;20386;-61
2021/04/25 05:56:30;;;;;;;5.68;1.13;;;9.70;61.60;;;;;;5014287;28;20077;-61
2021/04/25 05:58:56;;;;;;;11.95;1.65;;;9.80;61.90;;;;;;5013691;28;20030;-61
2021/04/25 06:01:22;;;;;;;9.35;1.70;;;9.80;61.90;;;;;;5014018;28;20392;-61
2021/04/25 06:03:48;;;;;;;12.05;1.70;;;9.80;62.00;;;;;;5014124;28;20109;-61
2021/04/25 06:06:13;;;;;;;1.10;0.88;;;9.90;62.50;;;;;;5010564;28;20113;-61
2021/04/25 06:08:39;;;;;;;5.53;1.17;;;9.80;63.60;;;;;;5014028;28;20476;-61
2021/04/25 06:11:05;;;;;;;6.53;1.60;;;9.80;63.60;;;;;;5014169;28;20132;-61
2021/04/25 06:13:31;;;;;;;10.98;1.55;;;9.80;63.90;;;;;;5013175;28;20026;-61
2021/04/25 06:15:57;;;;;;;5.30;1.42;;;9.70;64.30;;;;;;5013898;28;20037;-61
2021/04/25 06:18:23;;;;;;;7.00;1.60;;;9.70;63.70;;;;;;5013712;28;20034;-61
2021/04/25 06:20:49;;;;;;;6.75;2.03;;;9.70;63.80;;;;;;5013093;28;20666;-61
2021/04/25 06:23:14;;;;;;;4.68;1.48;;;9.70;64.40;;;;;;5013731;28;20034;-61
2021/04/25 06:25:40;;;;;;;8.73;1.50;;;9.70;64.20;;;;;;5013786;28;20100;-61
2021/04/25 06:28:07;;;;;;;12.00;1.98;;;9.60;64.30;;;;;;5013372;28;20033;-61
2021/04/25 06:30:32;;;;;;;5.43;1.10;;;9.60;64.30;;;;;;5014155;28;20367;-61
2021/04/25 06:32:58;;;;;;;7.13;1.20;;;9.60;64.30;;;;;;5014100;28;20032;-61
2021/04/25 06:35:24;;;;;;;9.82;2.10;;;9.60;63.90;;;;;;5013253;28;20359;-61
2021/04/25 06:37:50;;;;;;;6.50;1.40;;;9.70;64.80;;;;;;5013903;28;20120;-61
2021/04/25 06:40:17;;;;;;;10.55;1.73;;;9.70;64.80;;;;;;5013929;28;20045;-61
2021/04/25 06:42:43;;;;;;;5.70;1.50;;;9.70;64.10;;;;;;5013348;28;20382;-61
2021/04/25 06:45:19;;;;;;;6.85;1.40;;;9.70;64.20;;;;;;4996200;28;20492;-61
2021/04/25 06:47:44;;;;;;;7.85;1.50;;;9.70;64.00;;;;;;5013075;28;20045;-61
2021/04/25 06:50:12;;;;;;;5.57;1.40;;;9.80;63.60;;;;;;5013595;28;20022;-61
2021/04/25 06:52:43;;;;;;;14.88;1.35;;;9.70;63.70;;;;;;5012951;28;20653;-61
2021/04/25 06:55:11;;;;;;;6.65;2.05;;;9.80;63.90;;;;;;5012750;28;20025;-61
2021/04/25 06:57:37;;;;;;;9.77;1.55;;;9.70;63.30;;;;;;5013546;28;20479;-61
2021/04/25 07:00:06;;;;;;;6.60;1.48;;;9.70;63.40;;;;;;5012844;28;20125;-61
2021/04/25 07:02:33;;;;;;;6.90;2.03;;;9.80;63.20;;;;;;5012406;28;20049;-64
2021/04/25 07:04:59;;;;;;;1.35;0.73;;;9.80;64.60;;;;;;5012803;28;20103;-64
2021/04/25 07:07:25;;;;;;;6.30;1.10;;;9.70;65.00;;;;;;5012929;28;20088;-67
2021/04/25 07:09:50;;;;;;;2.25;1.00;;;9.80;65.60;;;;;;5012355;28;20022;-61
2021/04/25 07:12:16;;;;;;;8.68;1.38;;;9.70;64.00;;;;;;5013048;28;20385;-62
2021/04/25 07:14:42;;;;;;;6.75;1.60;;;9.70;63.40;;;;;;5012710;28;20038;-61
2021/04/25 07:17:08;;;;;;;7.68;1.50;;;9.70;63.60;;;;;;5012245;28;20021;-62
2021/04/25 07:19:33;;;;;;;12.63;1.50;;;9.70;63.40;;;;;;5013485;28;20782;-61
2021/04/25 07:21:59;;;;;;;6.00;0.80;;;9.70;63.60;;;;;;5012214;28;20026;-61
2021/04/25 07:24:25;;;;;;;11.48;2.08;;;9.70;63.90;;;;;;5012039;28;20034;-62
2021/04/25 07:26:54;;;;;;;1.40;1.05;;;9.70;63.10;;;;;;5011676;28;20038;-62
2021/04/25 07:29:20;;;;;;;8.32;1.80;;;9.70;64.40;;;;;;5001718;28;20034;-62
2021/04/25 07:31:45;;;;;;;2.50;1.00;;;9.80;65.00;;;;;;5003146;28;20422;-62
2021/04/25 07:34:12;;;;;;;12.52;3.92;;;9.70;64.90;;;;;;5003501;28;20037;-61
2021/04/25 07:36:38;;;;;;;3.72;1.23;;;9.80;65.10;;;;;;5005693;28;20072;-61
2021/04/25 07:39:06;;;;;;;3.25;1.30;;;9.80;64.50;;;;;;5001380;28;20361;-62
2021/04/25 07:41:32;;;;;;;9.98;1.80;;;9.80;64.40;;;;;;5005067;28;20119;-61
2021/04/25 07:43:58;;;;;;;13.73;1.92;;;9.80;64.70;;;;;;4997661;28;20473;-61
2021/04/25 07:46:24;;;;;;;5.43;1.20;;;9.80;64.50;;;;;;5000218;28;20092;-61
2021/04/25 07:48:50;;;;;;;7.93;1.40;;;9.80;64.60;;;;;;5000648;28;20034;-61
2021/04/25 07:51:16;;;;;;;4.65;1.50;;;9.80;64.20;;;;;;4998295;28;20034;-61
2021/04/25 07:53:42;;;;;;;1.92;0.77;;;9.80;64.20;;;;;;5003802;28;20030;-61
2021/04/25 07:56:08;;;;;;;6.70;1.23;;;9.90;64.90;;;;;;5004825;28;20033;-61
2021/04/25 07:58:34;;;;;;;4.80;1.40;;;9.90;64.60;;;;;;5004852;28;20395;-61
2021/04/25 08:01:00;;;;;;;3.08;1.20;;;9.90;64.70;;;;;;5005319;28;20033;-61
2021/04/25 08:03:26;;;;;;;5.75;1.17;;;10.00;64.80;;;;;;5007892;28;20466;-61
2021/04/25 08:05:52;;;;;;;7.28;1.58;;;9.90;64.40;;;;;;5009054;28;20057;-61
2021/04/25 08:08:18;;;;;;;4.43;1.25;;;10.00;64.10;;;;;;5009588;28;20041;-61
2021/04/25 08:10:45;;;;;;;5.35;1.15;;;10.00;64.80;;;;;;5010114;28;20028;-61
2021/04/25 08:13:11;;;;;;;4.35;1.15;;;10.00;64.80;;;;;;5002735;28;20038;-62
2021/04/25 08:15:37;;;;;;;3.63;0.90;;;10.10;64.20;;;;;;5003219;28;20405;-61
2021/04/25 08:18:05;;;;;;;7.40;1.52;;;10.10;63.70;;;;;;5002168;28;20768;-62
2021/04/25 08:20:31;;;;;;;8.10;1.67;;;10.10;63.60;;;;;;4999218;28;20023;-63
2021/04/25 08:22:57;;;;;;;6.28;1.40;;;10.10;63.80;;;;;;4996587;28;20377;-61
2021/04/25 08:25:22;;;;;;;9.27;2.53;;;10.10;63.30;;;;;;5000512;28;20109;-61
2021/04/25 08:27:48;;;;;;;6.78;1.65;;;10.20;63.30;;;;;;5003650;28;20046;-62
2021/04/25 08:30:14;;;;;;;8.23;1.77;;;10.20;63.20;;;;;;5015654;28;20034;-62
2021/04/25 08:32:40;;;;;;;5.95;1.02;;;10.20;62.80;;;;;;5015954;28;20041;-62
2021/04/25 08:35:07;;;;;;;9.57;1.40;;;10.30;63.10;;;;;;5015439;28;20026;-62
2021/04/25 08:37:33;;;;;;;8.63;1.65;;;10.30;62.60;;;;;;5015783;28;20030;-62
2021/04/25 08:39:59;;;;;;;13.10;1.75;;;10.30;62.10;;;;;;5015686;28;20038;-62
2021/04/25 08:42:25;;;;;;;7.35;1.30;;;10.30;62.40;;;;;;5001164;28;20030;-61
2021/04/25 08:44:54;;;;;;;8.82;1.73;;;10.40;62.90;;;;;;4998337;28;20046;-61
2021/04/25 08:47:22;;;;;;;11.63;1.73;;;10.30;61.70;;;;;;4999768;28;20049;-62
2021/04/25 08:49:49;;;;;;;5.05;1.45;;;10.40;61.70;;;;;;5002778;28;20029;-62
2021/04/25 08:52:15;;;;;;;8.68;1.60;;;10.40;61.60;;;;;;5003036;28;20026;-61
2021/04/25 08:54:41;;;;;;;6.30;1.70;;;10.50;62.30;;;;;;5000294;28;20093;-61
2021/04/25 08:57:07;;;;;;;9.30;2.28;;;10.50;62.90;;;;;;5003576;28;20465;-61
2021/04/25 08:59:33;;;;;;;8.20;1.33;;;10.50;62.00;;;;;;5001289;28;20030;-61
2021/04/25 09:01:59;;;;;;;7.25;1.33;;;10.50;62.50;;;;;;5000977;28;20034;-62
2021/04/25 09:04:25;;;;;;;9.70;1.58;;;10.50;62.00;;;;;;5002702;28;20492;-61
2021/04/25 09:06:54;;;;;;;7.97;1.30;;;10.60;61.60;;;;;;5000528;28;20383;-62
2021/04/25 09:09:20;;;;;;;6.32;1.70;;;10.60;61.30;;;;;;4999191;28;20666;-62
2021/04/25 09:11:49;;;;;;;10.05;1.58;;;10.60;60.90;;;;;;5006634;28;20026;-62
2021/04/25 09:14:24;;;;;;;6.65;1.25;;;10.60;61.10;;;;;;4992724;28;20018;-63
2021/04/25 09:16:53;;;;;;;3.38;1.27;;;10.70;62.50;;;;;;5014318;28;20034;-62
2021/04/25 09:19:20;;;;;;;6.57;1.35;;;10.70;62.00;;;;;;4997483;28;20037;-62
2021/04/25 09:22:00;;;;;;;8.15;1.55;;;10.70;61.70;;;;;;5009425;28;20037;-62
2021/04/25 09:24:31;;;;;;;5.68;1.40;;;10.80;61.70;;;;;;4993860;28;20580;-64
2021/04/25 09:27:00;;;;;;;5.15;1.58;;;10.90;61.80;;;;;;5014280;28;20116;-61
2021/04/25 09:29:45;;;;;;;13.25;1.80;;;10.90;61.60;;;;;;5001320;28;20027;-64
2021/04/25 09:32:29;;;;;;;4.70;0.95;;;10.90;62.30;;;;;;4998926;28;20030;-61
2021/04/25 09:35:18;;;;;;;4.32;0.93;;;10.90;61.90;;;;;;4995387;28;20061;-63
2021/04/25 09:37:46;;;;;;;9.30;1.35;;;11.00;62.20;;;;;;4994948;28;20058;-62
2021/04/25 09:40:19;;;;;;;11.35;1.65;;;11.00;62.90;;;;;;5003436;28;20114;-62
2021/04/25 09:43:04;;;;;;;5.75;1.13;;;11.00;62.10;;;;;;5004165;28;20109;-62
2021/04/25 09:45:31;;;;;;;9.77;1.85;;;11.10;62.40;;;;;;4998897;28;20065;-63
2021/04/25 09:47:59;;;;;;;6.85;1.55;;;11.10;62.80;;;;;;4998654;28;20042;-62
2021/04/25 09:50:26;;;;;;;9.95;1.55;;;11.10;63.30;;;;;;4995664;28;20041;-62
2021/04/25 09:52:52;;;;;;;6.32;1.80;;;11.10;62.30;;;;;;4996354;28;20030;-62
2021/04/25 09:55:29;;;;;;;15.40;1.98;;;11.10;62.60;;;;;;4997723;28;20461;-62
2021/04/25 09:57:57;;;;;;;4.05;1.20;;;11.10;61.70;;;;;;5008433;28;20060;-62
2021/04/25 10:00:40;;;;;;;7.32;1.50;;;11.20;61.60;;;;;;5014849;28;20026;-62
2021/04/25 10:03:10;;;;;;;10.80;1.95;;;11.20;62.70;;;;;;5014851;28;20033;-61
2021/04/25 10:05:38;;;;;;;7.43;1.38;;;11.30;63.00;;;;;;5014098;28;20041;-61
2021/04/25 10:08:05;;;;;;;8.43;1.60;;;11.30;64.00;;;;;;5013657;28;20503;-62
2021/04/25 10:10:31;;;;;;;5.03;1.33;;;11.40;64.50;;;;;;5014581;28;20038;-62
2021/04/25 10:12:58;;;;;;;8.80;1.75;;;11.40;64.80;;;;;;5013963;28;20025;-62
2021/04/25 10:15:24;;;;;;;4.85;1.17;;;11.30;64.20;;;;;;5014030;28;20477;-62
2021/04/25 10:17:52;;;;;;;14.60;1.85;;;11.40;64.90;;;;;;5014616;28;20030;-62
2021/04/25 10:20:20;;;;;;;4.40;1.38;;;11.40;64.80;;;;;;5013588;28;20164;-62
2021/04/25 10:22:48;;;;;;;4.72;1.42;;;11.40;63.10;;;;;;5013809;28;20042;-61
2021/04/25 10:25:17;;;;;;;9.68;1.58;;;11.40;63.00;;;;;;5011006;28;20030;-61
2021/04/25 10:27:48;;;;;;;7.63;2.00;;;11.50;63.30;;;;;;4994015;28;20038;-61
2021/04/25 10:30:14;;;;;;;11.40;1.40;;;11.60;63.20;;;;;;4995550;28;20018;-61
2021/04/25 10:32:43;;;;;;;12.48;1.98;;;11.60;63.50;;;;;;4998940;28;20036;-61
2021/04/25 10:35:16;;;;;;;11.60;2.55;;;11.70;63.50;;;;;;4994244;28;20465;-62
2021/04/25 10:37:43;;;;;;;5.82;2.13;;;11.70;62.70;;;;;;4996838;28;20030;-62
2021/04/25 10:40:19;;;;;;;4.85;2.05;;;11.80;62.20;;;;;;5007778;28;20044;-62
2021/04/25 10:43:01;;;;;;;12.57;1.73;;;11.80;61.90;;;;;;4994108;28;20161;-61
2021/04/25 10:45:29;;;;;;;7.30;1.40;;;11.90;61.10;;;;;;4994566;28;20046;-59
2021/04/25 10:48:19;;;;;;;14.98;1.90;;;11.90;60.70;;;;;;4996967;28;20533;-62
2021/04/25 10:50:47;;;;;;;7.38;1.63;;;11.90;61.40;;;;;;4994041;28;20033;-62
2021/04/25 10:53:26;;;;;;;9.93;2.05;;;11.90;60.90;;;;;;4993002;28;20113;-61
2021/04/25 10:56:19;;;;;;;8.07;2.08;;;12.00;60.50;;;;;;4995705;28;20030;-62
2021/04/25 10:59:22;;;;;;;8.35;1.23;;;12.00;61.40;;;;;;4996182;28;20105;-61
2021/04/25 11:01:48;;;;;;;9.02;1.83;;;12.10;62.40;;;;;;4995586;28;20504;-61
2021/04/25 11:04:52;;;;;;;7.07;1.67;;;12.10;62.10;;;;;;4993216;28;20033;-63
2021/04/25 11:07:33;;;;;;;10.27;1.88;;;12.10;62.90;;;;;;4993221;28;20030;-61
2021/04/25 11:09:59;;;;;;;10.73;1.73;;;12.10;63.70;;;;;;4993845;28;20100;-62
2021/04/25 11:12:35;;;;;;;12.75;1.83;;;12.10;63.90;;;;;;4995325;28;20457;-63
2021/04/25 11:15:01;;;;;;;18.55;1.77;;;12.10;63.10;;;;;;4991555;28;20080;-60
2021/04/25 11:17:31;;;;;;;11.93;2.45;;;12.20;63.20;;;;;;4995594;28;20058;-61
2021/04/25 11:19:57;;;;;;;9.00;1.42;;;12.20;62.40;;;;;;4993757;28;20029;-60
2021/04/25 11:22:45;;;;;;;14.43;1.77;;;12.20;61.80;;;;;;4996327;28;20455;-61
2021/04/25 11:25:28;;;;;;;9.73;1.40;;;12.30;63.20;;;;;;4994830;28;20038;-61
2021/04/25 11:27:53;;;;;;;9.60;1.75;;;12.40;63.80;;;;;;4993383;28;20497;-61
2021/04/25 11:30:38;;;;;;;12.73;2.10;;;12.30;61.80;;;;;;4990354;28;20069;-69
2021/04/25 11:33:30;;;;;;;4.32;1.15;;;12.40;61.00;;;;;;4995616;28;20080;-60
2021/04/25 11:36:34;;;;;;;13.73;2.25;;;12.50;61.50;;;;;;5000889;28;20041;-61
2021/04/25 11:39:00;;;;;;;9.13;2.53;;;12.50;59.40;;;;;;5004544;28;20022;-60
2021/04/25 11:41:26;;;;;;;15.02;1.70;;;12.60;59.20;;;;;;5007070;28;20038;-60
2021/04/25 11:43:52;;;;;;;9.63;1.73;;;12.70;57.90;;;;;;5005258;28;20473;-60
2021/04/25 11:46:35;;;;;;;5.30;1.35;;;12.80;57.40;;;;;;5007416;28;20040;-60
2021/04/25 11:49:02;;;;;;;10.50;1.73;;;12.80;57.80;;;;;;5006736;28;20393;-60
2021/04/25 11:51:29;;;;;;;5.90;1.45;;;12.90;57.90;;;;;;5005277;28;20150;-61
2021/04/25 11:53:54;;;;;;;4.95;1.30;;;12.90;58.20;;;;;;5007772;28;20112;-62
2021/04/25 11:56:31;;;;;;;8.80;1.50;;;12.90;58.40;;;;;;5004515;28;20180;-61
2021/04/25 11:59:08;;;;;;;9.35;1.90;;;13.00;57.60;;;;;;5007462;28;20026;-62
2021/04/25 12:01:35;;;;;;;3.55;1.30;;;13.00;57.40;;;;;;5000939;28;20611;-62
2021/04/25 12:04:01;;;;;;;8.05;1.40;;;13.00;57.70;;;;;;5001940;28;20502;-61
2021/04/25 12:06:27;;;;;;;9.40;1.95;;;13.10;57.80;;;;;;4996005;28;20030;-60
2021/04/25 12:08:54;;;;;;;8.73;1.85;;;13.00;57.80;;;;;;4994210;28;20473;-61
2021/04/25 12:11:26;;;;;;;12.30;1.70;;;13.10;58.90;;;;;;4993810;28;20685;-60
2021/04/25 12:13:53;;;;;;;9.90;1.60;;;13.10;57.70;;;;;;4995837;28;20030;-60
2021/04/25 12:16:21;;;;;;;6.75;1.70;;;13.10;57.60;;;;;;4993153;28;20046;-60
2021/04/25 12:18:47;;;;;;;8.82;2.58;;;13.20;56.70;;;;;;4993426;28;20034;-60
2021/04/25 12:21:23;;;;;;;7.72;1.85;;;13.20;58.10;;;;;;4992549;28;20038;-60
2021/04/25 12:23:56;;;;;;;10.23;1.63;;;13.20;58.50;;;;;;4994270;28;20037;-61
2021/04/25 12:26:25;;;;;;;13.25;2.00;;;13.20;58.90;;;;;;4990986;28;20121;-61
2021/04/25 12:28:53;;;;;;;11.05;1.75;;;13.30;59.20;;;;;;4998751;28;20404;-61
2021/04/25 12:31:22;;;;;;;11.00;1.60;;;13.30;58.50;;;;;;4993585;28;20030;-61
2021/04/25 12:33:54;;;;;;;12.25;1.52;;;13.30;58.20;;;;;;4993524;28;20358;-61
2021/04/25 12:36:23;;;;;;;8.82;1.73;;;13.30;58.00;;;;;;4994445;28;20027;-61
2021/04/25 12:39:04;;;;;;;6.75;1.42;;;13.40;58.80;;;;;;4993315;28;20587;-61
2021/04/25 12:41:50;;;;;;;10.27;1.80;;;13.30;59.10;;;;;;4994254;28;20034;-61
2021/04/25 12:44:19;;;;;;;9.95;2.05;;;13.40;58.00;;;;;;5011606;28;20069;-61
2021/04/25 12:46:56;;;;;;;10.75;2.13;;;13.40;57.70;;;;;;5011511;28;20041;-63
2021/04/25 12:49:33;;;;;;;10.27;1.77;;;13.40;57.20;;;;;;5014024;28;20461;-62
2021/04/25 12:51:59;;;;;;;12.95;1.58;;;13.40;58.10;;;;;;5013230;28;20026;-63